• Join FlightAware (Why Join?)
  • Login
  • US Flag 
12:44AM EDT


 

Airport Tracker/Info


-or-


 

Live Flight TrackerFlight Track Log ✈ GJS3618 ✈ 01-Jul-2013 ✈ KORD - KBZN

Flight Track Log - Related Links

Times and Time Zones

All times are in EDT time to prevent confusion due to time zone crossing. See the GJS3618 flight status page for this flight to view local times or setup timezone preferences in your user account.

Time Position Orientation Groundspeed Altitude Reporting Facility
EDT Latitude Longitude Course Direction KTS MPH feet Rate Location/Type
10:26PM 42.0167 -87.9500 270° West 171 197 1,900  Level Chicago TRACON
10:27PM 42.0500 -88.0000 312° West 245 282 3,100 2,040 Climbing Chicago TRACON
10:29PM 42.1350 -88.0764 326° Northwest 266 306 6,500 2,640 Climbing Chicago Center
10:30PM 42.1367 -88.1867 271° West 305 351 9,100 1,860 Climbing Chicago Center
10:31PM 42.1236 -88.3031 261° West 313 360 10,400 1,440 Climbing Chicago Center
10:32PM 41.9668 -88.8543 270° West  Level FlightAware Approximate
10:32PM 42.1108 -88.4408 263° West 362 417 12,100  Level Chicago Center
10:33PM 42.1011 -88.5800 265° West 374 430 14,200 1,860 Climbing Chicago Center
10:34PM 42.0925 -88.7225 265° West 381 438 16,000 1,740 Climbing Chicago Center
10:35PM 42.0814 -88.8964 265° West 394 453 17,800 1,620 Climbing Chicago Center
10:36PM 42.0725 -89.0486 266° West 404 465 19,400 1,680 Climbing Chicago Center
10:37PM 42.0650 -89.2039 266° West 413 475 21,300 1,860 Climbing Chicago Center
10:38PM 42.0628 -89.3539 269° West 406 467 23,300 1,620 Climbing Chicago Center
10:39PM 42.0781 -89.5006 278° West 401 461 24,700 1,080 Climbing Chicago Center
10:40PM 42.1206 -89.6461 292° West 416 479 25,500 660 Climbing Chicago Center
10:41PM 42.1633 -89.7972 291° West 428 493 26,100 660 Climbing Chicago Center
10:42PM 42.2111 -89.9628 291° West 444 511 26,900 780 Climbing Chicago Center
10:43PM 42.2544 -90.1192 291° West 449 517 27,800 840 Climbing Chicago Center
10:44PM 42.2983 -90.2758 291° West 450 518 28,700 960 Climbing Chicago Center
10:45PM 42.3422 -90.4314 291° West 444 511 29,800 1,020 Climbing Chicago Center
10:46PM 42.3836 -90.5858 290° West 443 510 30,800 780 Climbing Chicago Center
10:47PM 42.4275 -90.7411 291° West 446 513 31,500 780 Climbing Chicago Center
10:48PM 42.4694 -90.8978 290° West 447 514 32,400 900 Climbing Chicago Center
10:49PM 42.5194 -91.0819 290° West 440 506 33,400 840 Climbing Chicago Center
10:50PM 42.5597 -91.2353 290° West 435 501 34,200 600 Climbing Chicago Center
10:51PM 42.6003 -91.3883 290° West 434 499 34,700 540 Climbing Chicago Center
10:52PM 42.6406 -91.5447 289° West 436 502 35,400 600 Climbing Chicago Center
10:53PM 42.6831 -91.7047 290° West 438 504 36,000 240 Climbing Chicago Center
10:54PM 42.7247 -91.8631 290° West 439 505 36,000  Level Chicago Center
10:55PM 42.7661 -92.0242 289° West 448 516 36,000  Level Chicago Center
10:56PM 42.8078 -92.1875 289° West 456 525 36,000  Level Chicago Center
10:57PM 42.8497 -92.3522 289° West 462 532 36,000  Level Chicago Center
10:58PM 42.8833 -92.4842 289° West 462 532 36,000  Level Minneapolis Center
10:59PM 42.9244 -92.6478 289° West 460 529 36,000  Level Minneapolis Center
11:00PM 42.9639 -92.8117 288° West 460 529 36,000  Level Minneapolis Center
11:01PM 43.0142 -93.0069 289° West 459 528 36,000  Level Minneapolis Center
11:02PM 43.0547 -93.1725 289° West 462 532 36,000  Level Minneapolis Center
11:03PM 43.0950 -93.3381 288° West 462 532 36,000  Level Minneapolis Center
11:04PM 43.1258 -93.5094 284° West 467 537 36,000  Level Minneapolis Center
11:05PM 43.1564 -93.6825 284° West 469 540 36,000  Level Minneapolis Center
11:06PM 43.1917 -93.8533 286° West 472 543 36,000  Level Minneapolis Center
11:07PM 43.2328 -94.0236 288° West 475 547 36,000  Level Minneapolis Center
11:08PM 43.2814 -94.2289 288° West 477 549 36,000  Level Minneapolis Center
11:09PM 43.3250 -94.4083 289° West 476 548 36,000  Level Minneapolis Center
11:10PM 43.3717 -94.6125 288° West 469 540 36,000  Level Minneapolis Center
11:12PM 43.4097 -94.7839 287° West 469 540 36,000  Level Minneapolis Center
11:13PM 43.4483 -94.9542 287° West 467 537 36,000  Level Minneapolis Center
11:14PM 43.4856 -95.1228 287° West 463 533 36,000  Level Minneapolis Center
11:15PM 43.5242 -95.2944 287° West 467 537 36,000  Level Minneapolis Center
11:16PM 43.5536 -95.4300 287° West 465 535 36,000  Level Minneapolis Center
11:17PM 43.5981 -95.6364 287° West 467 537 36,000  Level Minneapolis Center
11:18PM 43.6350 -95.8081 287° West 468 539 36,000  Level Minneapolis Center
11:19PM 43.6722 -95.9797 287° West 465 535 36,000  Level Minneapolis Center
11:20PM 43.7014 -96.1172 286° West 464 534 36,000  Level Minneapolis Center
11:21PM 43.7439 -96.3253 286° West 466 536 36,000  Level Minneapolis Center
11:22PM 43.7806 -96.5000 286° West 468 539 36,000  Level Minneapolis Center
11:23PM 43.8164 -96.6750 286° West 470 541 36,000  Level Minneapolis Center
11:24PM 43.8594 -96.8847 286° West 470 541 36,000  Level Minneapolis Center
11:25PM 43.8950 -97.0589 286° West 470 541 36,000  Level Minneapolis Center
11:26PM 43.9303 -97.2342 286° West 472 543 36,000  Level Minneapolis Center
11:27PM 43.9647 -97.4094 285° West 471 542 36,000  Level Minneapolis Center
11:28PM 43.9992 -97.5833 285° West 467 537 36,000  Level Minneapolis Center
11:29PM 44.0322 -97.7564 285° West 465 535 36,000  Level Minneapolis Center
11:30PM 44.0658 -97.9306 285° West 467 537 36,000  Level Minneapolis Center
11:31PM 44.1006 -98.1042 286° West 467 537 36,000  Level Minneapolis Center
11:32PM 44.1325 -98.2794 284° West 468 539 36,000  Level Minneapolis Center
11:33PM 44.1664 -98.4533 285° West 467 537 36,000  Level Minneapolis Center
11:34PM 44.1986 -98.6286 284° West 468 539 36,000  Level Minneapolis Center
11:35PM 44.2322 -98.8136 284° West 469 540 36,000  Level Minneapolis Center
11:36PM 44.2644 -98.9881 285° West 466 536 36,000  Level Minneapolis Center
11:37PM 44.2964 -99.1636 284° West 466 536 36,000  Level Minneapolis Center
11:38PM 44.3281 -99.3386 284° West 466 536 36,000  Level Minneapolis Center
11:39PM 44.3586 -99.5142 284° West 465 535 36,000  Level Minneapolis Center
11:40PM 44.3947 -99.7247 284° West 464 534 36,000  Level Minneapolis Center
11:41PM 44.4261 -99.9008 284° West 464 534 36,000  Level Minneapolis Center
11:42PM 44.4558 -100.0767 283° West 463 533 36,000  Level Minneapolis Center
11:43PM 44.4917 -100.2881 283° West 463 533 36,000  Level Minneapolis Center
11:44PM 44.5217 -100.4644 283° West 463 533 36,000  Level Minneapolis Center
11:45PM 44.5450 -100.6042 283° West 461 531 36,000  Level Minneapolis Center
11:46PM 44.5789 -100.8142 283° West 460 529 36,000  Level Minneapolis Center
11:47PM 44.6069 -100.9886 283° West 458 527 36,000  Level Minneapolis Center
11:48PM 44.6347 -101.1611 283° West 456 525 36,000  Level Minneapolis Center
11:49PM 44.6619 -101.3353 282° West 456 525 36,000  Level Minneapolis Center
11:50PM 44.6936 -101.5103 284° West 457 526 36,000  Level Minneapolis Center
11:51PM 44.7211 -101.6828 283° West 455 524 36,000  Level Minneapolis Center
11:52PM 44.7472 -101.8542 282° West 450 518 36,000  Level Minneapolis Center
11:53PM 44.7736 -102.0275 282° West 451 519 36,000  Level Minneapolis Center
11:54PM 44.7939 -102.1639 282° West 451 519 36,000  Level Denver Center
11:55PM 44.8253 -102.3714 282° West 451 519 36,000  Level Denver Center
11:56PM 44.8508 -102.5436 282° West 451 519 36,000  Level Denver Center
11:57PM 44.8758 -102.7156 282° West 448 516 36,000  Level Denver Center
11:58PM 44.9008 -102.8889 282° West 450 518 36,000  Level Denver Center
11:59PM 44.9256 -103.0622 281° West 451 519 36,000  Level Denver Center
12:00AM 44.9525 -103.2411 282° West 450 518 36,000  Level Salt Lake Center
12:01AM 44.9756 -103.4058 281° West 450 518 36,000  Level Salt Lake Center
12:02AM 45.0028 -103.6011 281° West 452 520 36,000  Level Salt Lake Center
12:04AM 45.0281 -103.7967 280° West 455 524 36,000  Level Denver Center
12:05AM 45.0531 -103.9719 281° West 457 526 36,000  Level Denver Center
12:06AM 45.0744 -104.1417 280° West 459 528 36,000  Level Denver Center
12:07AM 45.1014 -104.3389 281° West 458 527 36,000  Level Denver Center
12:08AM 45.1194 -104.4792 280° West 463 533 36,000  Level Salt Lake Center
12:09AM 45.1453 -104.6792 280° West 464 534 36,000  Level Salt Lake Center
12:10AM 45.1667 -104.8486 280° West 461 531 36,000  Level Salt Lake Center
12:11AM 45.1906 -105.0456 280° West 458 527 36,000  Level Salt Lake Center
12:12AM 45.2108 -105.2117 280° West 451 519 36,000  Level Salt Lake Center
12:13AM 45.2317 -105.3786 280° West 452 520 36,000  Level Salt Lake Center
12:14AM 45.2544 -105.5739 279° West 450 518 36,000  Level Salt Lake Center
12:15AM 45.2747 -105.7400 280° West 449 517 36,000  Level Salt Lake Center
12:16AM 45.2936 -105.9017 279° West 450 518 36,000  Level Salt Lake Center
12:17AM 45.3142 -106.0775 279° West 451 519 36,000  Level Salt Lake Center
12:18AM 45.3336 -106.2525 279° West 451 519 36,000  Level Salt Lake Center
12:19AM 45.3533 -106.4289 279° West 450 518 36,000  Level Salt Lake Center
12:20AM 45.3733 -106.6039 279° West 450 518 36,000  Level Salt Lake Center
12:21AM 45.3917 -106.7808 278° West 451 519 36,000  Level Salt Lake Center
12:22AM 45.4147 -106.9933 279° West 452 520 36,000  Level Salt Lake Center
12:23AM 45.4322 -107.1692 278° West 452 520 36,000  Level Salt Lake Center
12:24AM 45.4511 -107.3528 278° West 451 519 36,000  Level Salt Lake Center
12:25AM 45.4694 -107.5278 279° West 452 520 36,000  Level Salt Lake Center
12:26AM 45.4869 -107.7033 278° West 454 522 36,000  Level Salt Lake Center
12:27AM 45.5044 -107.8767 278° West 447 514 36,000  Level Salt Lake Center
12:28AM 45.5219 -108.0661 278° West 449 517 36,000  Level Salt Lake Center
12:29AM 45.5392 -108.2419 278° West 452 520 36,000  Level Salt Lake Center
12:30AM 45.5550 -108.4175 277° West 453 521 36,000  Level Salt Lake Center
12:31AM 45.5708 -108.5942 277° West 448 516 36,000  Level Salt Lake Center
12:32AM 45.5889 -108.7872 278° West 455 524 36,000  Level Salt Lake Center
12:33AM 45.6058 -108.9628 278° West 452 520 36,000  Level Salt Lake Center
12:34AM 45.6219 -109.1372 278° West 448 516 36,000 -240 Level Salt Lake Center
12:35AM 45.6364 -109.3128 277° West 448 516 35,600 -1,980 Descending Salt Lake Center
12:36AM 45.6525 -109.4956 277° West 440 506 32,000 -3,540 Descending Salt Lake Center
12:37AM 45.6669 -109.6717 277° West 449 517 28,500 -3,360 Descending Salt Lake Center
12:38AM 45.6808 -109.8375 277° West 458 527 25,300 -3,540 Descending Salt Lake Center
12:39AM 45.6967 -110.0392 276° West 459 528 21,400 -3,540 Descending Salt Lake Center
12:40AM 45.7106 -110.2019 277° West 448 516 18,200 -3,060 Descending Salt Lake Center
12:41AM 45.7214 -110.3550 276° West 430 495 15,300 -2,040 Descending Salt Lake Center
12:42AM 45.7336 -110.5225 276° West 407 468 14,100 -1,440 Descending Salt Lake Center
12:43AM 45.7114 -110.6461 256° West 365 420 12,400 -1,140 Descending Salt Lake Center
12:44AM 45.6842 -110.7622 251° West 337 388 11,900 -300 Descending Salt Lake Center
12:45AM 45.6636 -110.8606 253° West 281 323 11,900 -600 Level Salt Lake Center
12:46AM 45.6731 -110.9564 278° West 250 288 10,800 -1,200 Descending Salt Lake Center
12:47AM 45.6883 -111.0544 283° West 250 288 9,500 -1,380 Descending Salt Lake Center
12:48AM 45.7119 -111.1486 290° West 248 285 8,100 -1,380 Descending Salt Lake Center
12:49AM 45.7411 -111.2425 294° West 249 287 6,800 -720 Descending Salt Lake Center
12:50AM 45.7867 -111.3225 309° West 254 292 6,700 -300 Descending Salt Lake Center
12:51AM 45.8400 -111.3208 North 232 267 6,300 -420 Descending Salt Lake Center
12:52AM 45.8464 -111.2522 82° East 204 235 5,900 -600 Descending Salt Lake Center
12:53AM 45.8164 -111.2056 133° Southeast 177 204 5,100 -780 Descending Salt Lake Center
12:54AM 45.7883 -111.1672 136° Southeast 157 181 4,400 -720 Descending Salt Lake Center